Terminal Aerodrome Forecast
Issued by NWS

Home | Current Version | Previous Version | Text Only | Print | Product List | Glossary On
Versions: 1 2 3 4 5 6 7 8 9 10 11 12 13 14 15 16 17 18 19 20 21
485
FTUS41 KPBZ 110802 AAA
TAFLBE
TAF AMD
KLBE 110802Z 1108/1206 24014G17KT P6SM OVC024
     FM111300 29010G20KT 6SM -SHSN OVC025
     FM111500 30012G20KT P6SM BKN030=

USA.gov is the U.S. government's official web portal to all federal, state and local government web resources and services.